Time;durP1;ratioP1;P1;durP2;ratioP2;P2;SDS_P1;SDS_P2;PMS_P1;PMS_P2;Temp;Humidity;BMP_temperature;BMP_pressure;BME280_temperature;BME280_humidity;BME280_pressure;Samples;Min_cycle;Max_cycle;Signal;HPM_P1;HPM_P2
2023/05/04 00:00:24;;;;;;;5.00;4.50;;;;;;;;;;5047140;28;20188;-82
2023/05/04 00:02:49;;;;;;;5.73;4.60;;;;;;;;;;5043110;28;20201;-82
2023/05/04 00:05:15;;;;;;;4.90;4.40;;;;;;;;;;5052005;28;20181;-82
2023/05/04 00:07:40;;;;;;;4.67;4.27;;;;;;;;;;5040946;28;20181;-82
2023/05/04 00:10:06;;;;;;;4.80;4.30;;;;;;;;;;5044234;28;20185;-82
2023/05/04 00:12:31;;;;;;;6.47;4.87;;;;;;;;;;5050022;28;20186;-82
2023/05/04 00:14:56;;;;;;;5.53;4.50;;;;;;;;;;5041998;28;20260;-82
2023/05/04 00:17:22;;;;;;;5.70;4.70;;;;;;;;;;5049786;28;20173;-82
2023/05/04 00:19:47;;;;;;;5.43;4.87;;;;;;;;;;5045760;28;20235;-82
2023/05/04 00:22:12;;;;;;;6.20;4.57;;;;;;;;;;5044236;28;20174;-82
2023/05/04 00:24:37;;;;;;;5.17;4.60;;;;;;;;;;5049266;28;20178;-82
2023/05/04 00:27:03;;;;;;;5.73;4.77;;;;;;;;;;5043833;28;20192;-82
2023/05/04 00:29:28;;;;;;;5.13;4.63;;;;;;;;;;5048309;28;20227;-82
2023/05/04 00:31:53;;;;;;;4.63;3.70;;;;;;;;;;5050006;28;20184;-82
2023/05/04 00:34:19;;;;;;;4.63;4.23;;;;;;;;;;5040101;28;20195;-82
2023/05/04 00:36:45;;;;;;;8.37;5.33;;;;;;;;;;5045200;28;20177;-82
2023/05/04 00:39:10;;;;;;;6.73;4.70;;;;;;;;;;5039890;28;20176;-82
2023/05/04 00:41:36;;;;;;;5.43;4.70;;;;;;;;;;5048783;28;20250;-82
2023/05/04 00:44:03;;;;;;;5.73;4.97;;;;;;;;;;5049636;28;20181;-82
2023/05/04 00:46:28;;;;;;;5.47;4.70;;;;;;;;;;5052105;28;20184;-82
2023/05/04 00:48:53;;;;;;;5.47;4.80;;;;;;;;;;5052465;28;20177;-82
2023/05/04 00:51:20;;;;;;;9.50;4.83;;;;;;;;;;5049155;28;20225;-82
2023/05/04 00:53:46;;;;;;;7.17;5.30;;;;;;;;;;5053092;28;20193;-82
2023/05/04 00:56:12;;;;;;;4.97;4.27;;;;;;;;;;5042405;28;20212;-83
2023/05/04 00:58:37;;;;;;;7.73;5.20;;;;;;;;;;5049298;28;20177;-82
2023/05/04 01:01:03;;;;;;;5.40;4.90;;;;;;;;;;5048221;28;20177;-82
2023/05/04 01:03:29;;;;;;;6.57;5.03;;;;;;;;;;5044379;28;20198;-82
2023/05/04 01:06:09;;;;;;;6.20;5.60;;;;;;;;;;5043780;28;20364;-82
2023/05/04 01:08:37;;;;;;;5.30;4.83;;;;;;;;;;5059203;28;20222;-82
2023/05/04 01:11:07;;;;;;;5.27;4.77;;;;;;;;;;5058935;28;20267;-82
2023/05/04 01:13:33;;;;;;;5.00;4.60;;;;;;;;;;5039270;28;20181;-82
2023/05/04 01:15:59;;;;;;;6.87;5.30;;;;;;;;;;5041776;28;20206;-82
2023/05/04 01:18:25;;;;;;;7.20;5.70;;;;;;;;;;5039985;28;20177;-82
2023/05/04 01:20:50;;;;;;;8.40;5.27;;;;;;;;;;5043435;28;20169;-82
2023/05/04 01:23:15;;;;;;;6.80;5.67;;;;;;;;;;5038132;28;20182;-82
2023/05/04 01:26:01;;;;;;;5.47;4.60;;;;;;;;;;5043024;28;20196;-82
2023/05/04 01:28:30;;;;;;;6.27;5.67;;;;;;;;;;5040823;28;20200;-82
2023/05/04 01:30:58;;;;;;;7.10;6.40;;;;;;;;;;5035291;28;20227;-82
2023/05/04 01:33:24;;;;;;;7.20;5.93;;;;;;;;;;5045540;28;20180;-82
2023/05/04 01:35:49;;;;;;;7.37;5.20;;;;;;;;;;5048250;28;20234;-82
2023/05/04 01:38:14;;;;;;;7.80;5.23;;;;;;;;;;5041727;28;20272;-83
2023/05/04 01:40:40;;;;;;;8.80;5.40;;;;;;;;;;5044757;28;20173;-82
2023/05/04 01:43:05;;;;;;;7.20;4.97;;;;;;;;;;5041260;28;20183;-82
2023/05/04 01:45:30;;;;;;;9.17;5.63;;;;;;;;;;5044008;28;20188;-82
2023/05/04 01:47:56;;;;;;;9.27;5.37;;;;;;;;;;5046718;28;20180;-82
2023/05/04 01:50:21;;;;;;;7.47;6.03;;;;;;;;;;5044161;28;20277;-82
2023/05/04 01:52:46;;;;;;;9.20;6.23;;;;;;;;;;5046717;28;20175;-82
2023/05/04 01:55:11;;;;;;;6.53;5.93;;;;;;;;;;5042792;28;20202;-83
2023/05/04 01:57:36;;;;;;;7.43;6.63;;;;;;;;;;5041806;28;20255;-82
2023/05/04 02:00:02;;;;;;;6.50;5.80;;;;;;;;;;5035176;28;20248;-82
2023/05/04 02:02:27;;;;;;;6.33;5.57;;;;;;;;;;5039297;28;20204;-82
2023/05/04 02:04:53;;;;;;;6.67;5.17;;;;;;;;;;5039290;28;20180;-82
2023/05/04 02:07:18;;;;;;;7.67;6.67;;;;;;;;;;5045764;28;20320;-82
2023/05/04 02:09:44;;;;;;;7.40;5.97;;;;;;;;;;5049417;28;20184;-82
2023/05/04 02:12:09;;;;;;;7.10;5.97;;;;;;;;;;5047875;28;20176;-82
2023/05/04 02:14:34;;;;;;;7.47;6.77;;;;;;;;;;5039744;28;20207;-82
2023/05/04 02:17:00;;;;;;;8.37;6.97;;;;;;;;;;5050394;28;20180;-82
2023/05/04 02:19:25;;;;;;;7.73;6.93;;;;;;;;;;5050227;28;20244;-82
2023/05/04 02:21:51;;;;;;;8.20;6.43;;;;;;;;;;5048382;28;20175;-82
2023/05/04 02:24:16;;;;;;;9.43;6.67;;;;;;;;;;5043960;28;20186;-83
2023/05/04 02:26:42;;;;;;;8.47;7.60;;;;;;;;;;5065614;28;20179;-82
2023/05/04 02:29:07;;;;;;;9.67;7.33;;;;;;;;;;5047444;28;20232;-82
2023/05/04 02:31:32;;;;;;;7.70;6.67;;;;;;;;;;5045925;28;20333;-82
2023/05/04 02:33:58;;;;;;;7.13;6.43;;;;;;;;;;5041180;28;20253;-82
2023/05/04 02:36:23;;;;;;;7.63;6.67;;;;;;;;;;5048953;28;20179;-82
2023/05/04 02:38:49;;;;;;;10.37;8.23;;;;;;;;;;5048372;28;20281;-82
2023/05/04 02:41:14;;;;;;;7.40;6.60;;;;;;;;;;5049235;28;20174;-82
2023/05/04 02:43:39;;;;;;;10.53;7.93;;;;;;;;;;5042377;28;20176;-82
2023/05/04 02:46:05;;;;;;;8.33;7.53;;;;;;;;;;5065218;28;20179;-82
2023/05/04 02:48:30;;;;;;;10.33;8.33;;;;;;;;;;5046095;28;20180;-84
2023/05/04 02:50:55;;;;;;;10.67;8.50;;;;;;;;;;5044472;28;20179;-85
2023/05/04 02:53:21;;;;;;;10.37;8.00;;;;;;;;;;5045153;28;20264;-84
2023/05/04 02:55:46;;;;;;;10.20;8.20;;;;;;;;;;5041913;28;20190;-84
2023/05/04 02:58:11;;;;;;;11.73;9.77;;;;;;;;;;5038801;28;20172;-84
2023/05/04 03:00:36;;;;;;;9.93;8.40;;;;;;;;;;5046015;28;20171;-84
2023/05/04 03:03:01;;;;;;;12.57;8.77;;;;;;;;;;5040033;28;20289;-84
2023/05/04 03:05:27;;;;;;;11.23;9.97;;;;;;;;;;5042344;28;20288;-84
2023/05/04 03:07:52;;;;;;;11.27;10.07;;;;;;;;;;5041667;28;20262;-84
2023/05/04 03:10:17;;;;;;;13.43;10.20;;;;;;;;;;5041367;28;20183;-84
2023/05/04 03:12:43;;;;;;;11.77;10.50;;;;;;;;;;5046750;28;20186;-84
2023/05/04 03:15:09;;;;;;;12.77;10.53;;;;;;;;;;5043881;28;20293;-84
2023/05/04 03:17:34;;;;;;;14.03;11.07;;;;;;;;;;5061445;28;20251;-84
2023/05/04 03:20:00;;;;;;;11.13;9.93;;;;;;;;;;5044168;28;20270;-84
2023/05/04 03:22:25;;;;;;;11.33;9.93;;;;;;;;;;5039473;28;20167;-84
2023/05/04 03:24:50;;;;;;;12.33;11.03;;;;;;;;;;5040843;28;20178;-84
2023/05/04 03:27:16;;;;;;;11.90;10.23;;;;;;;;;;5034330;28;20186;-84
2023/05/04 03:29:41;;;;;;;12.53;10.77;;;;;;;;;;5041302;28;20330;-84
2023/05/04 03:32:06;;;;;;;13.33;11.40;;;;;;;;;;5034690;28;20267;-84
2023/05/04 03:34:31;;;;;;;12.93;10.17;;;;;;;;;;5043307;28;20202;-84
2023/05/04 03:36:57;;;;;;;11.80;10.20;;;;;;;;;;5043230;28;20216;-84
2023/05/04 03:39:22;;;;;;;13.27;11.40;;;;;;;;;;5043904;28;20181;-84
2023/05/04 03:41:48;;;;;;;14.37;11.70;;;;;;;;;;5044843;28;20175;-84
2023/05/04 03:44:13;;;;;;;15.20;10.80;;;;;;;;;;5039473;28;20261;-84
2023/05/04 03:46:38;;;;;;;13.73;10.77;;;;;;;;;;5042258;28;20262;-84
2023/05/04 03:49:04;;;;;;;13.73;11.20;;;;;;;;;;5040805;28;20175;-84
2023/05/04 03:51:29;;;;;;;13.73;11.80;;;;;;;;;;5052072;28;20271;-84
2023/05/04 03:53:54;;;;;;;14.70;11.40;;;;;;;;;;5037018;28;20170;-84
2023/05/04 03:56:20;;;;;;;15.23;12.47;;;;;;;;;;5041647;28;20200;-84
2023/05/04 03:58:46;;;;;;;14.00;11.33;;;;;;;;;;5041129;28;20179;-84
2023/05/04 04:01:12;;;;;;;15.57;12.47;;;;;;;;;;5047247;28;20212;-84
2023/05/04 04:03:37;;;;;;;14.43;12.23;;;;;;;;;;5043926;28;20278;-84
2023/05/04 04:06:04;;;;;;;13.40;11.43;;;;;;;;;;5046028;28;20179;-84
2023/05/04 04:08:29;;;;;;;14.77;13.20;;;;;;;;;;5044835;28;20183;-85
2023/05/04 04:10:54;;;;;;;16.37;13.63;;;;;;;;;;5043969;28;20184;-84
2023/05/04 04:13:20;;;;;;;13.73;10.97;;;;;;;;;;5037800;28;20252;-84
2023/05/04 04:15:45;;;;;;;15.37;12.67;;;;;;;;;;5040721;28;20199;-84
2023/05/04 04:18:10;;;;;;;15.87;13.60;;;;;;;;;;5048226;28;20175;-84
2023/05/04 04:20:35;;;;;;;16.97;12.60;;;;;;;;;;5042710;28;20265;-84
2023/05/04 04:23:01;;;;;;;18.73;13.33;;;;;;;;;;5046188;28;20202;-84
2023/05/04 04:25:27;;;;;;;16.03;13.07;;;;;;;;;;5057197;28;20213;-84
2023/05/04 04:27:52;;;;;;;17.30;14.30;;;;;;;;;;5038482;28;20185;-84
2023/05/04 04:30:17;;;;;;;18.40;15.07;;;;;;;;;;5038364;28;20277;-85
2023/05/04 04:32:42;;;;;;;15.53;13.37;;;;;;;;;;5049157;28;20238;-85
2023/05/04 04:35:08;;;;;;;29.57;20.80;;;;;;;;;;5046860;28;20202;-85
2023/05/04 04:37:33;;;;;;;26.30;21.40;;;;;;;;;;5048708;28;20323;-85
2023/05/04 04:39:58;;;;;;;19.33;16.03;;;;;;;;;;5040297;28;20178;-84
2023/05/04 04:42:24;;;;;;;15.93;13.90;;;;;;;;;;5038524;28;20175;-85
2023/05/04 04:44:51;;;;;;;21.20;16.10;;;;;;;;;;5043651;28;20269;-85
2023/05/04 04:47:16;;;;;;;18.53;15.37;;;;;;;;;;5041694;28;20260;-84
2023/05/04 04:49:42;;;;;;;18.17;14.17;;;;;;;;;;5049409;28;20233;-85
2023/05/04 04:52:07;;;;;;;19.67;14.67;;;;;;;;;;5046319;28;20178;-83
2023/05/04 04:54:32;;;;;;;15.43;13.43;;;;;;;;;;5046226;28;20194;-85
2023/05/04 04:56:58;;;;;;;16.77;14.07;;;;;;;;;;5039072;28;20182;-85
2023/05/04 04:59:23;;;;;;;15.63;12.87;;;;;;;;;;5040984;28;20179;-85
2023/05/04 05:01:49;;;;;;;20.73;14.83;;;;;;;;;;5039050;28;20175;-77
2023/05/04 05:04:14;;;;;;;18.27;14.13;;;;;;;;;;5057711;28;20181;-78
2023/05/04 05:06:40;;;;;;;15.53;13.20;;;;;;;;;;5046786;28;20179;-77
2023/05/04 05:09:06;;;;;;;19.73;15.00;;;;;;;;;;5042044;28;20175;-77
2023/05/04 05:11:31;;;;;;;17.70;14.70;;;;;;;;;;5042240;28;20174;-77
2023/05/04 05:13:58;;;;;;;16.93;14.53;;;;;;;;;;5039421;28;20177;-77
2023/05/04 05:16:23;;;;;;;17.90;14.97;;;;;;;;;;5043273;28;20217;-77
2023/05/04 05:18:48;;;;;;;17.80;13.80;;;;;;;;;;5044434;28;20177;-77
2023/05/04 05:21:14;;;;;;;19.77;16.17;;;;;;;;;;5044587;28;20224;-77
2023/05/04 05:23:39;;;;;;;20.47;17.23;;;;;;;;;;5043736;28;20189;-77
2023/05/04 05:26:05;;;;;;;17.10;14.40;;;;;;;;;;5041951;28;20229;-77
2023/05/04 05:28:31;;;;;;;25.83;18.87;;;;;;;;;;5046929;28;20183;-77
2023/05/04 05:30:56;;;;;;;20.73;16.53;;;;;;;;;;5039504;28;20223;-77
2023/05/04 05:33:21;;;;;;;18.10;16.03;;;;;;;;;;5042884;28;20203;-77
2023/05/04 05:35:46;;;;;;;22.47;16.20;;;;;;;;;;5046140;28;20213;-77
2023/05/04 05:38:12;;;;;;;20.40;15.13;;;;;;;;;;5042153;28;20246;-78
2023/05/04 05:40:37;;;;;;;16.63;14.37;;;;;;;;;;5042555;28;20174;-77
2023/05/04 05:43:04;;;;;;;19.17;15.07;;;;;;;;;;5044988;28;20179;-78
2023/05/04 05:45:29;;;;;;;20.70;15.83;;;;;;;;;;5043463;28;20186;-78
2023/05/04 05:47:54;;;;;;;16.53;14.20;;;;;;;;;;5042790;28;20183;-77
2023/05/04 05:50:21;;;;;;;16.70;14.13;;;;;;;;;;5046905;28;20190;-78
2023/05/04 05:52:46;;;;;;;16.23;14.53;;;;;;;;;;5047897;28;20191;-77
2023/05/04 05:55:12;;;;;;;19.67;15.43;;;;;;;;;;5041632;28;20292;-78
2023/05/04 05:57:37;;;;;;;18.67;15.40;;;;;;;;;;5039677;28;20191;-77
2023/05/04 06:00:03;;;;;;;19.80;14.87;;;;;;;;;;5045796;28;20215;-78
2023/05/04 06:02:29;;;;;;;17.87;14.57;;;;;;;;;;5044844;28;20258;-77
2023/05/04 06:04:54;;;;;;;17.43;13.97;;;;;;;;;;5037727;28;20203;-78
2023/05/04 06:07:20;;;;;;;18.07;14.43;;;;;;;;;;5043693;28;20196;-77
2023/05/04 06:09:45;;;;;;;17.20;15.33;;;;;;;;;;5046094;28;20193;-78
2023/05/04 06:12:12;;;;;;;15.53;13.93;;;;;;;;;;5044599;28;20179;-78
2023/05/04 06:14:40;;;;;;;19.93;15.30;;;;;;;;;;5046643;28;20207;-78
2023/05/04 06:17:06;;;;;;;15.43;13.43;;;;;;;;;;5039061;28;20187;-78
2023/05/04 06:19:38;;;;;;;14.37;12.50;;;;;;;;;;5041473;28;20174;-77
2023/05/04 06:22:04;;;;;;;16.37;13.50;;;;;;;;;;5040921;28;20203;-78
2023/05/04 06:24:29;;;;;;;13.67;12.27;;;;;;;;;;5036185;28;20180;-77
2023/05/04 06:26:55;;;;;;;16.43;12.27;;;;;;;;;;5042966;28;20237;-77
2023/05/04 06:29:20;;;;;;;15.60;12.20;;;;;;;;;;5051220;28;20229;-77
2023/05/04 06:31:46;;;;;;;12.90;11.53;;;;;;;;;;5033830;28;20184;-77
2023/05/04 06:34:11;;;;;;;12.47;11.17;;;;;;;;;;5041515;28;20181;-77
2023/05/04 06:36:36;;;;;;;13.10;11.17;;;;;;;;;;5042814;28;20286;-77
2023/05/04 06:39:01;;;;;;;13.60;10.97;;;;;;;;;;5043242;28;20174;-78
2023/05/04 06:41:27;;;;;;;12.40;10.70;;;;;;;;;;5053215;28;20171;-78
2023/05/04 06:43:53;;;;;;;12.57;11.27;;;;;;;;;;5044973;28;20176;-78
2023/05/04 06:46:18;;;;;;;11.73;10.60;;;;;;;;;;5043446;28;20172;-78
2023/05/04 06:48:43;;;;;;;12.23;11.00;;;;;;;;;;5044428;28;20191;-77
2023/05/04 06:51:09;;;;;;;13.43;12.13;;;;;;;;;;5045994;28;20173;-78
2023/05/04 06:53:34;;;;;;;13.83;12.43;;;;;;;;;;5046115;28;20170;-77
2023/05/04 06:55:59;;;;;;;12.03;10.83;;;;;;;;;;5042671;28;20247;-77
2023/05/04 06:58:24;;;;;;;13.77;12.30;;;;;;;;;;5045886;28;20173;-77
2023/05/04 07:00:50;;;;;;;12.80;11.37;;;;;;;;;;5034822;28;20189;-77
2023/05/04 07:03:16;;;;;;;16.67;14.97;;;;;;;;;;5044117;28;20197;-77
2023/05/04 07:05:43;;;;;;;12.53;11.33;;;;;;;;;;5043880;28;20181;-77
2023/05/04 07:08:09;;;;;;;13.73;12.33;;;;;;;;;;5042058;28;20275;-77
2023/05/04 07:10:34;;;;;;;11.77;9.77;;;;;;;;;;5039488;28;20281;-77
2023/05/04 07:12:59;;;;;;;13.17;11.83;;;;;;;;;;5042432;28;20189;-77
2023/05/04 07:15:24;;;;;;;24.47;18.67;;;;;;;;;;5040379;28;20229;-77
2023/05/04 07:17:50;;;;;;;12.20;9.80;;;;;;;;;;5043339;28;20173;-77
2023/05/04 07:20:15;;;;;;;10.97;9.87;;;;;;;;;;5043491;28;20186;-77
2023/05/04 07:22:40;;;;;;;13.47;10.67;;;;;;;;;;5044702;28;20217;-77
2023/05/04 07:25:06;;;;;;;10.50;9.43;;;;;;;;;;5045039;28;20196;-77
2023/05/04 07:27:33;;;;;;;9.30;8.40;;;;;;;;;;5045902;28;20178;-77
2023/05/04 07:29:59;;;;;;;9.30;8.00;;;;;;;;;;5042537;28;20245;-78
2023/05/04 07:32:24;;;;;;;9.03;8.10;;;;;;;;;;5034951;28;20177;-78
2023/05/04 07:34:49;;;;;;;10.23;9.23;;;;;;;;;;5044906;28;20224;-77
2023/05/04 07:37:14;;;;;;;9.93;8.60;;;;;;;;;;5043018;28;20183;-77
2023/05/04 07:39:40;;;;;;;8.17;7.40;;;;;;;;;;5044784;28;20216;-77
2023/05/04 07:42:06;;;;;;;9.30;8.40;;;;;;;;;;5043496;28;20174;-77
2023/05/04 07:44:31;;;;;;;8.80;7.80;;;;;;;;;;5045672;28;20181;-77
2023/05/04 07:47:00;;;;;;;8.00;7.20;;;;;;;;;;5060643;28;20172;-77
2023/05/04 07:49:25;;;;;;;8.27;7.47;;;;;;;;;;5038195;28;20175;-77
2023/05/04 07:51:51;;;;;;;8.57;7.77;;;;;;;;;;5042682;28;20185;-78
2023/05/04 07:54:16;;;;;;;8.50;7.60;;;;;;;;;;5048625;28;20270;-78
2023/05/04 07:56:42;;;;;;;8.40;7.53;;;;;;;;;;5047270;28;20381;-77
2023/05/04 07:59:07;;;;;;;7.87;7.13;;;;;;;;;;5049110;28;20180;-77
2023/05/04 08:01:32;;;;;;;7.20;6.57;;;;;;;;;;5048766;28;20188;-77
2023/05/04 08:03:57;;;;;;;7.60;6.90;;;;;;;;;;5049305;28;20198;-77
2023/05/04 08:06:23;;;;;;;7.30;6.60;;;;;;;;;;5049657;28;20217;-77
2023/05/04 08:08:48;;;;;;;7.80;6.73;;;;;;;;;;5046572;28;20202;-78
2023/05/04 08:11:14;;;;;;;7.80;6.90;;;;;;;;;;5048069;28;20187;-77
2023/05/04 08:13:40;;;;;;;7.30;6.57;;;;;;;;;;5041234;28;20185;-77
2023/05/04 08:16:05;;;;;;;7.00;6.37;;;;;;;;;;5042753;28;20204;-77
2023/05/04 08:18:31;;;;;;;8.47;7.67;;;;;;;;;;5049512;28;20203;-77
2023/05/04 08:20:57;;;;;;;7.57;6.87;;;;;;;;;;5046893;28;20183;-77
2023/05/04 08:23:22;;;;;;;7.63;6.93;;;;;;;;;;5045731;28;20203;-77
2023/05/04 08:25:47;;;;;;;8.70;7.90;;;;;;;;;;5049967;28;20183;-77
2023/05/04 08:28:12;;;;;;;9.77;8.50;;;;;;;;;;5048300;28;20174;-77
2023/05/04 08:30:38;;;;;;;8.53;7.23;;;;;;;;;;5047953;28;20283;-77
2023/05/04 08:33:03;;;;;;;8.03;7.27;;;;;;;;;;5050285;28;20204;-77
2023/05/04 08:35:29;;;;;;;8.80;7.23;;;;;;;;;;5040364;28;20203;-77
2023/05/04 08:37:54;;;;;;;7.03;6.37;;;;;;;;;;5045476;28;20268;-77
2023/05/04 08:40:20;;;;;;;7.60;6.03;;;;;;;;;;5042371;28;20169;-78
2023/05/04 08:42:49;;;;;;;6.93;6.33;;;;;;;;;;5045796;28;20174;-77
2023/05/04 08:45:14;;;;;;;7.30;6.60;;;;;;;;;;5050031;28;20205;-77
2023/05/04 08:47:42;;;;;;;6.63;6.03;;;;;;;;;;5049270;28;20201;-77
2023/05/04 08:50:07;;;;;;;6.43;5.77;;;;;;;;;;5041004;28;20177;-75
2023/05/04 08:52:34;;;;;;;5.40;4.83;;;;;;;;;;5044982;28;20277;-75
2023/05/04 08:55:00;;;;;;;7.20;6.57;;;;;;;;;;5042917;28;20210;-76
2023/05/04 08:57:25;;;;;;;6.73;6.13;;;;;;;;;;5046003;28;20174;-77
2023/05/04 08:59:54;;;;;;;5.97;4.93;;;;;;;;;;5043582;28;20167;-77
2023/05/04 09:02:21;;;;;;;6.03;5.53;;;;;;;;;;5044696;28;20190;-77
2023/05/04 09:04:46;;;;;;;7.10;6.40;;;;;;;;;;5047044;28;20208;-77
2023/05/04 09:07:12;;;;;;;5.63;5.13;;;;;;;;;;5048761;28;20202;-77
2023/05/04 09:09:37;;;;;;;6.60;5.80;;;;;;;;;;5049625;28;20175;-77
2023/05/04 09:12:02;;;;;;;8.20;5.83;;;;;;;;;;5046206;28;20192;-77
2023/05/04 09:14:31;;;;;;;5.67;5.17;;;;;;;;;;5047414;28;20175;-77
2023/05/04 09:16:56;;;;;;;5.73;5.27;;;;;;;;;;5036789;28;20166;-77
2023/05/04 09:19:21;;;;;;;6.97;5.97;;;;;;;;;;5058133;28;20206;-77
2023/05/04 09:21:48;;;;;;;5.57;5.07;;;;;;;;;;5042188;28;20172;-78
2023/05/04 09:24:23;;;;;;;5.90;5.40;;;;;;;;;;5041109;28;20179;-77
2023/05/04 09:26:49;;;;;;;5.83;5.33;;;;;;;;;;5044742;28;20180;-77
2023/05/04 09:29:14;;;;;;;5.40;4.77;;;;;;;;;;5040242;28;20233;-77
2023/05/04 09:31:47;;;;;;;7.07;5.57;;;;;;;;;;5033035;28;20175;-77
2023/05/04 09:34:12;;;;;;;4.83;4.43;;;;;;;;;;5041711;28;20173;-77
2023/05/04 09:36:38;;;;;;;5.30;4.60;;;;;;;;;;5043659;28;20179;-77
2023/05/04 09:39:09;;;;;;;4.23;3.93;;;;;;;;;;5041402;28;20188;-77
2023/05/04 09:41:35;;;;;;;7.23;4.70;;;;;;;;;;5043752;28;20281;-77
2023/05/04 09:44:00;;;;;;;4.50;4.20;;;;;;;;;;5048896;28;20314;-77
2023/05/04 09:46:26;;;;;;;5.23;4.83;;;;;;;;;;5046776;28;20188;-77
2023/05/04 09:48:51;;;;;;;5.73;5.13;;;;;;;;;;5042009;28;20200;-77
2023/05/04 09:51:19;;;;;;;5.03;4.63;;;;;;;;;;5047110;28;20212;-75
2023/05/04 09:53:45;;;;;;;5.23;4.73;;;;;;;;;;5049237;28;20167;-74
2023/05/04 09:56:19;;;;;;;4.77;4.37;;;;;;;;;;5039315;28;20223;-77
2023/05/04 09:58:45;;;;;;;5.07;4.67;;;;;;;;;;5042876;28;20178;-77
2023/05/04 10:01:10;;;;;;;5.57;4.43;;;;;;;;;;5040718;28;20209;-77
2023/05/04 10:03:36;;;;;;;4.53;4.03;;;;;;;;;;5037837;28;20188;-77
2023/05/04 10:06:02;;;;;;;5.43;3.97;;;;;;;;;;5032794;28;20228;-75
2023/05/04 10:08:27;;;;;;;3.70;3.40;;;;;;;;;;5037209;28;20265;-75
2023/05/04 10:10:53;;;;;;;3.60;3.30;;;;;;;;;;5046471;28;20185;-77
2023/05/04 10:13:20;;;;;;;3.60;3.30;;;;;;;;;;5036673;28;20177;-77
2023/05/04 10:16:05;;;;;;;4.77;4.37;;;;;;;;;;5040005;28;20209;-77
2023/05/04 10:18:40;;;;;;;4.20;3.83;;;;;;;;;;5038822;28;20272;-77
2023/05/04 10:21:15;;;;;;;5.63;5.20;;;;;;;;;;5059159;28;20167;-77
2023/05/04 10:23:56;;;;;;;3.70;3.40;;;;;;;;;;5044204;28;20201;-77
2023/05/04 10:26:24;;;;;;;3.47;3.27;;;;;;;;;;5038100;28;20178;-77
2023/05/04 10:28:49;;;;;;;3.67;3.37;;;;;;;;;;5044341;28;20220;-77
2023/05/04 10:31:16;;;;;;;3.70;3.40;;;;;;;;;;5047723;28;20210;-77
2023/05/04 10:33:42;;;;;;;3.10;2.90;;;;;;;;;;5047418;28;20174;-77
2023/05/04 10:36:07;;;;;;;2.97;2.77;;;;;;;;;;5042285;28;20195;-77
2023/05/04 10:38:37;;;;;;;4.00;3.70;;;;;;;;;;5041500;28;20230;-77
2023/05/04 10:41:18;;;;;;;3.67;3.27;;;;;;;;;;5047891;28;20227;-77
2023/05/04 10:43:47;;;;;;;3.50;3.20;;;;;;;;;;5036055;28;20170;-77
2023/05/04 10:46:20;;;;;;;3.50;3.20;;;;;;;;;;5041328;28;20233;-77
2023/05/04 10:48:45;;;;;;;3.63;3.33;;;;;;;;;;5041368;28;20180;-77
2023/05/04 10:51:20;;;;;;;3.30;3.10;;;;;;;;;;5044989;28;20178;-77
2023/05/04 10:53:46;;;;;;;6.83;3.83;;;;;;;;;;5046893;28;20176;-75
2023/05/04 10:56:27;;;;;;;3.57;3.27;;;;;;;;;;5043368;28;20198;-75
2023/05/04 10:58:52;;;;;;;3.73;3.30;;;;;;;;;;5043468;28;20175;-74
2023/05/04 11:01:18;;;;;;;3.70;3.13;;;;;;;;;;5046045;28;20179;-75
2023/05/04 11:03:43;;;;;;;3.50;3.20;;;;;;;;;;5048698;28;20197;-75
2023/05/04 11:06:16;;;;;;;3.47;3.17;;;;;;;;;;5047109;28;20177;-75
2023/05/04 11:08:41;;;;;;;5.23;4.20;;;;;;;;;;5059402;28;20180;-74
2023/05/04 11:11:07;;;;;;;5.00;3.70;;;;;;;;;;5044116;28;20273;-74
2023/05/04 11:13:33;;;;;;;3.07;2.73;;;;;;;;;;5050874;28;20264;-74
2023/05/04 11:15:59;;;;;;;3.40;3.10;;;;;;;;;;5047991;28;20224;-74
2023/05/04 11:18:27;;;;;;;4.43;4.03;;;;;;;;;;5048637;28;20268;-75
2023/05/04 11:20:54;;;;;;;3.87;3.57;;;;;;;;;;5049406;28;20174;-75
2023/05/04 11:23:20;;;;;;;3.27;3.07;;;;;;;;;;5049714;28;20177;-75
2023/05/04 11:25:45;;;;;;;3.07;2.87;;;;;;;;;;5047225;28;20254;-75
2023/05/04 11:28:11;;;;;;;3.30;3.00;;;;;;;;;;5046722;28;20265;-74
2023/05/04 11:30:36;;;;;;;4.30;3.93;;;;;;;;;;5043742;28;20226;-74
2023/05/04 11:33:03;;;;;;;3.20;2.50;;;;;;;;;;5043699;28;20224;-74
2023/05/04 11:35:28;;;;;;;5.20;4.70;;;;;;;;;;5040977;28;20209;-75
2023/05/04 11:37:55;;;;;;;2.70;2.50;;;;;;;;;;5047104;28;20265;-75
2023/05/04 11:40:21;;;;;;;5.25;2.72;;;;;;;;;;5052279;28;20212;-75
2023/05/04 11:42:48;;;;;;;2.88;2.67;;;;;;;;;;5048238;28;20182;-74
2023/05/04 11:45:18;;;;;;;4.73;3.43;;;;;;;;;;5041825;28;20206;-74
2023/05/04 11:47:43;;;;;;;3.30;3.00;;;;;;;;;;5043967;28;20269;-74
2023/05/04 11:50:10;;;;;;;3.40;3.10;;;;;;;;;;5046416;28;20332;-75
2023/05/04 11:52:35;;;;;;;3.97;3.45;;;;;;;;;;5046425;28;20181;-74
2023/05/04 11:55:01;;;;;;;4.55;4.15;;;;;;;;;;5045812;28;20225;-75
2023/05/04 11:57:27;;;;;;;3.75;3.45;;;;;;;;;;5046705;28;20249;-74
2023/05/04 11:59:52;;;;;;;3.40;3.10;;;;;;;;;;5061644;28;20269;-74
2023/05/04 12:02:17;;;;;;;3.40;3.10;;;;;;;;;;5041928;28;20194;-74
2023/05/04 12:04:43;;;;;;;3.80;3.50;;;;;;;;;;5039664;28;20236;-74
2023/05/04 12:07:08;;;;;;;3.75;3.45;;;;;;;;;;5050606;28;20242;-74
2023/05/04 12:09:46;;;;;;;3.30;3.00;;;;;;;;;;5045564;28;20182;-74
2023/05/04 12:12:13;;;;;;;3.60;3.30;;;;;;;;;;5042878;28;20178;-74
2023/05/04 12:14:51;;;;;;;3.10;2.90;;;;;;;;;;5039876;28;20194;-74
2023/05/04 12:17:18;;;;;;;3.47;3.05;;;;;;;;;;5040335;28;20170;-74
2023/05/04 12:19:47;;;;;;;3.40;3.10;;;;;;;;;;5045562;28;20167;-74
2023/05/04 12:22:12;;;;;;;3.80;3.47;;;;;;;;;;5042058;28;20167;-74
2023/05/04 12:24:38;;;;;;;3.67;3.05;;;;;;;;;;5052363;28;20241;-75
2023/05/04 12:27:04;;;;;;;3.63;3.33;;;;;;;;;;5040582;28;20178;-75
2023/05/04 12:29:29;;;;;;;3.95;3.42;;;;;;;;;;5046498;28;20222;-74
2023/05/04 12:31:54;;;;;;;4.82;4.32;;;;;;;;;;5048306;28;20245;-74
2023/05/04 12:34:19;;;;;;;4.13;3.25;;;;;;;;;;5048933;28;20189;-74
2023/05/04 12:36:45;;;;;;;6.75;5.65;;;;;;;;;;5046254;28;20205;-74
2023/05/04 12:39:10;;;;;;;4.07;3.38;;;;;;;;;;5045314;28;20239;-74
2023/05/04 12:41:36;;;;;;;3.15;2.95;;;;;;;;;;5038862;28;20178;-74
2023/05/04 12:44:01;;;;;;;3.60;2.88;;;;;;;;;;5060053;28;20246;-74
2023/05/04 12:46:26;;;;;;;4.18;3.05;;;;;;;;;;5046000;28;20189;-74
2023/05/04 12:48:52;;;;;;;3.22;2.90;;;;;;;;;;5047367;28;20178;-74
2023/05/04 12:51:17;;;;;;;3.47;3.17;;;;;;;;;;5046673;28;20328;-74
2023/05/04 12:53:42;;;;;;;3.03;2.72;;;;;;;;;;5037760;28;20171;-74
2023/05/04 12:56:08;;;;;;;3.25;3.03;;;;;;;;;;5048825;28;20186;-74
2023/05/04 12:58:33;;;;;;;5.25;2.80;;;;;;;;;;5042862;28;20178;-74
2023/05/04 13:00:58;;;;;;;3.05;2.75;;;;;;;;;;5042168;28;20163;-74
2023/05/04 13:03:24;;;;;;;4.03;3.30;;;;;;;;;;5050792;28;20198;-74
2023/05/04 13:05:49;;;;;;;6.70;3.97;;;;;;;;;;5047678;28;20178;-74
2023/05/04 13:08:15;;;;;;;5.40;4.10;;;;;;;;;;5045188;28;20294;-75
2023/05/04 13:10:41;;;;;;;2.85;2.65;;;;;;;;;;5045194;28;20197;-74
2023/05/04 13:13:06;;;;;;;3.20;2.90;;;;;;;;;;5049096;28;20170;-74
2023/05/04 13:15:32;;;;;;;3.95;3.60;;;;;;;;;;5048017;28;20189;-74
2023/05/04 13:17:57;;;;;;;3.22;3.00;;;;;;;;;;5045816;28;20171;-75
2023/05/04 13:20:23;;;;;;;4.22;3.83;;;;;;;;;;5041134;28;20178;-82
2023/05/04 13:22:50;;;;;;;3.60;3.22;;;;;;;;;;5044037;28;20174;-75
2023/05/04 13:25:15;;;;;;;3.20;2.60;;;;;;;;;;5043999;28;20190;-74
2023/05/04 13:27:40;;;;;;;4.07;2.97;;;;;;;;;;5047055;28;20185;-74
2023/05/04 13:30:07;;;;;;;4.88;3.00;;;;;;;;;;5048311;28;20230;-74
2023/05/04 13:32:33;;;;;;;2.80;2.55;;;;;;;;;;5041290;28;20265;-74
2023/05/04 13:34:58;;;;;;;2.72;2.53;;;;;;;;;;5041740;28;20303;-74
2023/05/04 13:37:23;;;;;;;3.00;2.70;;;;;;;;;;5041503;28;20201;-75
2023/05/04 13:39:50;;;;;;;3.03;2.63;;;;;;;;;;5041276;28;20233;-74
2023/05/04 13:42:15;;;;;;;4.40;2.72;;;;;;;;;;5043314;28;20214;-74
2023/05/04 13:44:44;;;;;;;2.70;2.50;;;;;;;;;;5031843;28;20273;-74
2023/05/04 13:47:12;;;;;;;2.50;2.30;;;;;;;;;;5034083;28;20182;-74
2023/05/04 13:49:38;;;;;;;2.80;2.60;;;;;;;;;;5029351;28;20190;-74
2023/05/04 13:52:04;;;;;;;9.20;2.78;;;;;;;;;;5030233;28;20186;-74
2023/05/04 13:54:30;;;;;;;3.15;2.78;;;;;;;;;;5032756;28;20251;-74
2023/05/04 13:56:55;;;;;;;2.35;2.15;;;;;;;;;;5037622;28;20179;-74
2023/05/04 13:59:20;;;;;;;2.95;2.50;;;;;;;;;;5043312;28;20209;-74
2023/05/04 14:01:45;;;;;;;5.25;3.78;;;;;;;;;;5039655;28;20178;-74
2023/05/04 14:04:11;;;;;;;2.63;2.42;;;;;;;;;;5053195;28;20197;-74
2023/05/04 14:06:36;;;;;;;2.70;2.50;;;;;;;;;;5052869;28;20189;-74
2023/05/04 14:09:01;;;;;;;2.60;2.40;;;;;;;;;;5047685;28;20166;-74
2023/05/04 14:11:27;;;;;;;2.70;2.42;;;;;;;;;;5047926;28;20244;-74
2023/05/04 14:13:53;;;;;;;5.35;2.20;;;;;;;;;;5050366;28;20292;-74
2023/05/04 14:16:19;;;;;;;3.03;2.83;;;;;;;;;;5044516;28;20263;-74
2023/05/04 14:18:44;;;;;;;2.67;2.47;;;;;;;;;;5041825;28;20206;-74
2023/05/04 14:21:09;;;;;;;2.70;2.40;;;;;;;;;;5045715;28;20174;-74
2023/05/04 14:23:34;;;;;;;2.53;2.33;;;;;;;;;;5042652;28;20174;-74
2023/05/04 14:26:00;;;;;;;2.50;2.30;;;;;;;;;;5048403;28;20269;-74
2023/05/04 14:28:25;;;;;;;2.40;2.20;;;;;;;;;;5050927;28;20185;-75